createdAt,value
2023-01-20T00:01:37.818Z,24.23
2023-01-20T00:04:05.754Z,24.05
2023-01-20T00:06:32.988Z,24.21
2023-01-20T00:09:03.371Z,24.07
2023-01-20T00:11:30.891Z,24.07
2023-01-20T00:13:59.510Z,24.17
2023-01-20T00:16:27.183Z,24.01
2023-01-20T00:18:54.865Z,24.27
2023-01-20T00:21:22.211Z,24.05
2023-01-20T00:23:49.493Z,24.12
2023-01-20T00:26:19.667Z,24.15
2023-01-20T00:28:47.475Z,24.35
2023-01-20T00:31:16.101Z,23.97
2023-01-20T00:33:43.731Z,24.11
2023-01-20T00:36:12.104Z,24.20
2023-01-20T00:38:39.184Z,24.21
2023-01-20T00:41:06.762Z,24.16
2023-01-20T00:43:35.639Z,24.18
2023-01-20T00:46:02.599Z,23.98
2023-01-20T00:48:29.677Z,23.92
2023-01-20T00:50:56.722Z,24.13
2023-01-20T00:53:23.637Z,24.07
2023-01-20T00:55:50.698Z,24.10
2023-01-20T00:58:17.670Z,24.17
2023-01-20T01:00:48.439Z,24.14
2023-01-20T01:03:15.847Z,24.02
2023-01-20T01:05:43.097Z,24.20
2023-01-20T01:08:10.263Z,24.00
2023-01-20T01:10:37.264Z,24.22
2023-01-20T01:13:04.963Z,24.11
2023-01-20T01:15:31.931Z,24.07
2023-01-20T01:18:00.754Z,24.16
2023-01-20T01:20:28.882Z,24.22
2023-01-20T01:22:55.808Z,24.16
2023-01-20T01:25:23.049Z,24.42
2023-01-20T01:27:49.955Z,24.15
2023-01-20T01:30:17.354Z,24.32
2023-01-20T01:32:44.370Z,24.28
2023-01-20T01:35:13.002Z,24.28
2023-01-20T01:37:40.040Z,24.42
2023-01-20T01:40:09.221Z,24.35
2023-01-20T01:42:36.844Z,24.31
2023-01-20T01:45:23.757Z,24.42
2023-01-20T01:47:56.265Z,24.33
2023-01-20T01:50:31.065Z,24.42
2023-01-20T01:52:58.182Z,24.45
2023-01-20T01:55:28.375Z,24.48
2023-01-20T01:57:56.791Z,24.42
2023-01-20T02:00:23.712Z,24.65
2023-01-20T02:02:51.824Z,24.38
2023-01-20T02:05:19.959Z,24.50
2023-01-20T02:07:49.184Z,24.31
2023-01-20T02:10:17.395Z,24.39
2023-01-20T02:12:49.564Z,24.46
2023-01-20T02:15:17.930Z,24.47
2023-01-20T02:17:57.535Z,24.82
2023-01-20T02:20:40.653Z,24.54
2023-01-20T02:23:16.724Z,24.71
2023-01-20T02:26:17.048Z,24.58
2023-01-20T02:29:13.796Z,24.67
2023-01-20T02:32:11.512Z,24.60
2023-01-20T02:34:43.025Z,24.71
2023-01-20T02:37:12.930Z,24.51
2023-01-20T02:39:48.048Z,24.72
2023-01-20T02:42:22.172Z,24.72
2023-01-20T02:45:09.095Z,24.72
2023-01-20T02:47:50.716Z,24.62
2023-01-20T02:50:22.857Z,24.56
2023-01-20T02:52:53.479Z,24.63
2023-01-20T02:55:26.883Z,24.78
2023-01-20T02:58:00.941Z,24.62
2023-01-20T03:00:33.154Z,24.59
2023-01-20T03:03:06.962Z,24.57
2023-01-20T03:05:39.734Z,24.81
2023-01-20T03:08:10.647Z,24.62
2023-01-20T03:10:38.784Z,24.98
2023-01-20T03:13:13.859Z,24.98
2023-01-20T03:15:50.883Z,24.71
2023-01-20T03:18:19.182Z,24.83
2023-01-20T03:20:46.102Z,24.91
2023-01-20T03:23:13.055Z,24.89
2023-01-20T03:25:41.138Z,24.71
2023-01-20T03:28:08.084Z,24.81
2023-01-20T03:30:34.995Z,24.75
2023-01-20T03:33:02.871Z,24.51
2023-01-20T03:35:31.928Z,24.73
2023-01-20T03:37:58.886Z,24.70
2023-01-20T03:40:31.783Z,24.90
2023-01-20T03:43:06.268Z,24.81
2023-01-20T03:45:41.582Z,24.76
2023-01-20T03:48:16.914Z,24.70
2023-01-20T03:50:53.425Z,24.90
2023-01-20T03:53:31.945Z,24.77
2023-01-20T03:56:04.268Z,24.62
2023-01-20T03:58:34.771Z,24.91
2023-01-20T04:01:08.926Z,25.00
2023-01-20T04:03:48.060Z,24.77
2023-01-20T04:06:19.241Z,24.94
2023-01-20T04:08:51.040Z,24.84
2023-01-20T04:11:18.446Z,24.94
2023-01-20T04:13:45.372Z,24.96
2023-01-20T04:16:15.874Z,25.15
2023-01-20T04:18:45.520Z,25.02
2023-01-20T04:21:18.717Z,24.85
2023-01-20T04:23:51.458Z,24.82
2023-01-20T04:26:18.474Z,25.10
2023-01-20T04:28:45.318Z,25.00
2023-01-20T04:31:28.695Z,24.90
2023-01-20T04:33:56.456Z,25.07
2023-01-20T04:36:24.799Z,25.09
2023-01-20T04:38:51.733Z,25.21
2023-01-20T04:41:18.789Z,25.13
2023-01-20T04:43:46.247Z,25.12
2023-01-20T04:46:13.766Z,25.12
2023-01-20T04:48:40.994Z,25.06
2023-01-20T04:51:08.540Z,25.17
2023-01-20T04:53:36.811Z,24.96
2023-01-20T04:56:04.053Z,25.05
2023-01-20T04:58:30.989Z,25.12
2023-01-20T05:01:01.557Z,25.13
2023-01-20T05:03:28.739Z,25.01
2023-01-20T05:05:55.617Z,25.10
2023-01-20T05:08:22.807Z,25.15
2023-01-20T05:10:51.202Z,25.11
2023-01-20T05:13:18.080Z,25.09
2023-01-20T05:15:45.028Z,24.92
2023-01-20T05:18:12.058Z,25.31
2023-01-20T05:20:39.006Z,25.16
2023-01-20T05:23:06.689Z,24.97
2023-01-20T05:25:33.977Z,25.33
2023-01-20T05:28:02.272Z,25.25
2023-01-20T05:30:29.212Z,25.24
2023-01-20T05:32:56.129Z,25.06
2023-01-20T05:35:23.008Z,25.25
2023-01-20T05:37:53.403Z,24.90
2023-01-20T05:40:20.482Z,24.86
2023-01-20T05:42:47.436Z,24.75
2023-01-20T05:45:16.252Z,24.79
2023-01-20T05:47:43.395Z,24.74
2023-01-20T05:50:11.739Z,24.64
2023-01-20T05:52:38.622Z,24.44
2023-01-20T05:55:06.064Z,24.91
2023-01-20T05:57:32.960Z,25.21
2023-01-20T05:59:59.913Z,25.37
2023-01-20T06:02:30.498Z,25.38
2023-01-20T06:04:57.459Z,25.39
2023-01-20T06:07:24.284Z,25.34
2023-01-20T06:09:51.162Z,25.36
2023-01-20T06:12:18.078Z,25.30
2023-01-20T06:14:44.977Z,25.33
2023-01-20T06:17:11.981Z,25.35
2023-01-20T06:19:40.646Z,25.43
2023-01-20T06:22:07.966Z,25.28
2023-01-20T06:24:34.864Z,25.14
2023-01-20T06:27:01.753Z,25.34
2023-01-20T06:29:28.678Z,25.08
2023-01-20T06:31:55.866Z,25.23
2023-01-20T06:34:22.809Z,25.17
2023-01-20T06:36:51.032Z,25.15
2023-01-20T06:39:17.973Z,25.05
2023-01-20T06:41:44.875Z,24.94
2023-01-20T06:44:11.813Z,25.19
2023-01-20T06:46:41.556Z,25.06
2023-01-20T06:49:10.499Z,25.16
2023-01-20T06:51:38.924Z,24.70
2023-01-20T06:54:07.227Z,24.61
2023-01-20T06:56:34.242Z,24.87
2023-01-20T06:59:01.168Z,24.47
2023-01-20T07:01:31.094Z,24.69
2023-01-20T07:03:58.653Z,24.81
2023-01-20T07:06:28.899Z,24.49
2023-01-20T07:08:58.671Z,24.37
2023-01-20T07:11:27.513Z,24.59
2023-01-20T07:13:54.389Z,24.35
2023-01-20T07:16:21.322Z,24.37
2023-01-20T07:18:49.890Z,24.40
2023-01-20T07:21:17.578Z,24.62
2023-01-20T07:23:44.665Z,24.57
2023-01-20T07:26:13.669Z,24.49
2023-01-20T07:28:45.379Z,24.67
2023-01-20T07:31:13.714Z,24.60
2023-01-20T07:33:40.825Z,24.79
2023-01-20T07:36:09.074Z,25.07
2023-01-20T07:38:36.347Z,25.05
2023-01-20T07:41:05.782Z,24.95
2023-01-20T07:43:33.213Z,24.90
2023-01-20T07:46:03.477Z,25.00
2023-01-20T07:48:31.832Z,25.10
2023-01-20T07:51:05.161Z,25.07
2023-01-20T07:53:34.314Z,24.81
2023-01-20T07:56:02.196Z,25.00
2023-01-20T07:58:29.981Z,24.72
2023-01-20T08:00:56.953Z,24.73
2023-01-20T08:03:27.353Z,24.75
2023-01-20T08:05:54.421Z,24.97
2023-01-20T08:08:21.293Z,24.77
2023-01-20T08:10:53.549Z,24.84
2023-01-20T08:13:20.601Z,24.75
2023-01-20T08:15:47.415Z,24.40
2023-01-20T08:18:14.279Z,24.50
2023-01-20T08:20:42.826Z,24.90
2023-01-20T08:23:09.681Z,24.66
2023-01-20T08:25:36.566Z,25.00
2023-01-20T08:28:05.481Z,24.39
2023-01-20T08:30:32.697Z,24.82
2023-01-20T08:32:59.634Z,24.34
2023-01-20T08:35:26.618Z,24.38
2023-01-20T08:37:54.955Z,24.69
2023-01-20T08:40:21.847Z,24.39
2023-01-20T08:42:48.973Z,24.25
2023-01-20T08:45:16.169Z,24.36
2023-01-20T08:47:45.917Z,24.78
2023-01-20T08:50:14.568Z,24.75
2023-01-20T08:52:42.010Z,24.14
2023-01-20T08:55:11.129Z,24.27
2023-01-20T08:57:37.969Z,24.34
2023-01-20T09:00:07.910Z,24.50
2023-01-20T09:02:34.903Z,24.68
2023-01-20T09:05:01.963Z,24.60
2023-01-20T09:07:28.846Z,24.12
2023-01-20T09:09:55.766Z,24.53
2023-01-20T09:12:23.993Z,24.59
2023-01-20T09:14:50.911Z,24.13
2023-01-20T09:17:17.854Z,24.14
2023-01-20T09:19:44.746Z,24.19
2023-01-20T09:22:11.731Z,24.54
2023-01-20T09:24:38.638Z,24.58
2023-01-20T09:27:05.549Z,24.38
2023-01-20T09:29:34.884Z,24.13
2023-01-20T09:32:01.850Z,24.10
2023-01-20T09:34:30.936Z,24.34
2023-01-20T09:37:19.936Z,24.55
2023-01-20T09:40:05.753Z,24.13
2023-01-20T09:43:00.199Z,24.19
2023-01-20T09:45:37.155Z,24.01
2023-01-20T09:48:15.528Z,23.82
2023-01-20T09:51:05.436Z,23.88
2023-01-20T09:53:46.131Z,24.11
2023-01-20T09:56:17.054Z,24.10
2023-01-20T09:58:50.687Z,24.22
2023-01-20T10:01:24.474Z,23.92
2023-01-20T10:03:57.248Z,24.43
2023-01-20T10:06:30.105Z,24.55
2023-01-20T10:09:06.001Z,24.55
2023-01-20T10:11:38.534Z,24.56
2023-01-20T10:14:13.579Z,24.30
2023-01-20T10:16:47.990Z,24.09
2023-01-20T10:19:22.026Z,23.91
2023-01-20T10:21:56.675Z,23.95
2023-01-20T10:24:28.402Z,24.45
2023-01-20T10:26:59.202Z,24.07
2023-01-20T10:29:32.335Z,24.39
2023-01-20T10:32:02.418Z,23.92
2023-01-20T10:34:34.560Z,23.94
2023-01-20T10:37:06.475Z,24.30
2023-01-20T10:39:42.781Z,23.87
2023-01-20T10:42:14.157Z,23.91
2023-01-20T10:44:41.755Z,24.21
2023-01-20T10:47:25.916Z,23.98
2023-01-20T10:50:13.423Z,24.47
2023-01-20T10:53:15.481Z,24.51
2023-01-20T10:55:57.232Z,24.04
2023-01-20T10:58:27.794Z,24.56
2023-01-20T11:00:55.412Z,24.29
2023-01-20T11:03:25.388Z,24.54
2023-01-20T11:05:53.014Z,24.03
2023-01-20T11:08:22.799Z,24.04
2023-01-20T11:10:52.943Z,24.14
2023-01-20T11:13:19.926Z,24.37
2023-01-20T11:15:49.929Z,24.35
2023-01-20T11:18:36.244Z,24.30
2023-01-20T11:21:05.767Z,23.84
2023-01-20T11:23:38.964Z,23.95
2023-01-20T11:26:10.943Z,23.84
2023-01-20T11:28:50.336Z,23.69
2023-01-20T11:31:17.682Z,24.15
2023-01-20T11:33:59.811Z,24.12
2023-01-20T11:36:27.673Z,24.09
2023-01-20T11:38:56.725Z,23.98
2023-01-20T11:41:25.118Z,24.22
2023-01-20T11:43:55.423Z,23.64
2023-01-20T11:46:29.327Z,23.82
2023-01-20T11:49:18.636Z,23.68
2023-01-20T11:51:51.314Z,23.86
2023-01-20T11:54:20.847Z,23.61
2023-01-20T11:56:51.824Z,24.24
2023-01-20T11:59:23.146Z,23.87
2023-01-20T12:01:51.562Z,23.75
2023-01-20T12:04:30.865Z,24.00
2023-01-20T12:07:03.644Z,24.01
2023-01-20T12:09:36.335Z,23.79
2023-01-20T12:12:06.902Z,24.12
2023-01-20T12:14:40.161Z,23.95
2023-01-20T12:17:15.736Z,23.81
2023-01-20T12:19:59.836Z,24.12
2023-01-20T12:22:33.188Z,23.65
2023-01-20T12:25:07.464Z,23.96
2023-01-20T12:27:41.166Z,23.81
2023-01-20T12:30:23.092Z,23.75
2023-01-20T12:32:50.955Z,24.10
2023-01-20T12:35:22.060Z,23.92
2023-01-20T12:37:56.133Z,24.18
2023-01-20T12:40:32.700Z,23.70
2023-01-20T12:43:42.294Z,23.79
2023-01-20T12:46:26.225Z,24.12
2023-01-20T12:49:04.881Z,24.04
2023-01-20T12:51:44.818Z,24.33
2023-01-20T12:54:48.344Z,24.33
2023-01-20T12:57:25.816Z,23.91
2023-01-20T13:00:09.320Z,24.19
2023-01-20T13:03:04.301Z,24.34
2023-01-20T13:06:06.372Z,24.61
2023-01-20T13:08:49.603Z,24.02
2023-01-20T13:11:26.881Z,24.24
2023-01-20T13:14:08.471Z,24.56
2023-01-20T13:16:43.119Z,24.18
2023-01-20T13:19:15.227Z,24.57
2023-01-20T13:21:42.702Z,24.64
2023-01-20T13:24:19.070Z,24.44
2023-01-20T13:26:48.153Z,24.47
2023-01-20T13:29:22.809Z,24.01
2023-01-20T13:31:52.924Z,24.58
2023-01-20T13:34:34.112Z,24.54
2023-01-20T13:37:27.636Z,24.12
2023-01-20T13:39:57.503Z,24.28
2023-01-20T13:42:48.687Z,24.83
2023-01-20T13:45:27.599Z,24.46
2023-01-20T13:47:58.085Z,24.49
2023-01-20T13:50:28.843Z,24.03
2023-01-20T13:53:14.216Z,24.49
2023-01-20T13:55:53.340Z,24.05
2023-01-20T13:58:22.497Z,24.38
2023-01-20T14:00:50.893Z,24.80
2023-01-20T14:03:22.591Z,24.48
2023-01-20T14:05:50.962Z,24.33
2023-01-20T14:08:18.354Z,24.21
2023-01-20T14:10:45.352Z,24.37
2023-01-20T14:13:20.116Z,24.47
2023-01-20T14:15:50.102Z,24.65
2023-01-20T14:18:19.363Z,24.44
2023-01-20T14:21:05.754Z,24.49
2023-01-20T14:23:38.146Z,24.36
2023-01-20T14:26:08.180Z,24.14
2023-01-20T14:28:41.760Z,24.42
2023-01-20T14:31:20.625Z,24.49
2023-01-20T14:33:51.712Z,24.71
2023-01-20T14:36:20.747Z,24.63
2023-01-20T14:38:58.243Z,24.42
2023-01-20T14:41:35.165Z,24.46
2023-01-20T14:44:15.422Z,24.44
2023-01-20T14:46:42.780Z,24.02
2023-01-20T14:49:15.851Z,24.46
2023-01-20T14:51:43.145Z,24.45
2023-01-20T14:54:37.654Z,24.58
2023-01-20T14:57:27.147Z,24.04
2023-01-20T15:00:13.910Z,24.38
2023-01-20T15:02:43.439Z,24.06
2023-01-20T15:05:29.425Z,24.25
2023-01-20T15:08:15.390Z,23.94
2023-01-20T15:10:42.685Z,24.20
2023-01-20T15:13:24.194Z,24.04
2023-01-20T15:15:52.431Z,23.92
2023-01-20T15:18:21.729Z,23.98
2023-01-20T15:21:03.894Z,24.29
2023-01-20T15:23:39.574Z,24.48
2023-01-20T15:26:08.777Z,24.04
2023-01-20T15:28:41.497Z,24.30
2023-01-20T15:31:13.999Z,24.31
2023-01-20T15:33:41.204Z,24.13
2023-01-20T15:36:21.547Z,23.88
2023-01-20T15:38:48.873Z,23.79
2023-01-20T15:41:15.753Z,24.02
2023-01-20T15:43:45.229Z,23.79
2023-01-20T15:46:15.332Z,24.31
2023-01-20T15:48:42.779Z,24.42
2023-01-20T15:51:14.680Z,23.79
2023-01-20T15:53:41.639Z,24.38
2023-01-20T15:56:16.390Z,23.76
2023-01-20T15:58:43.554Z,23.75
2023-01-20T16:01:14.759Z,24.07
2023-01-20T16:03:42.311Z,24.13
2023-01-20T16:06:13.272Z,23.97
2023-01-20T16:08:40.672Z,24.26
2023-01-20T16:11:08.025Z,23.85
2023-01-20T16:13:35.013Z,24.14
2023-01-20T16:16:02.285Z,23.93
2023-01-20T16:18:30.740Z,23.96
2023-01-20T16:20:57.647Z,24.01
2023-01-20T16:23:24.478Z,24.11
2023-01-20T16:25:51.399Z,24.07
2023-01-20T16:28:21.445Z,24.64
2023-01-20T16:30:48.760Z,24.47
2023-01-20T16:33:17.520Z,24.14
2023-01-20T16:35:46.068Z,24.64
2023-01-20T16:38:15.482Z,24.24
2023-01-20T16:40:50.160Z,24.33
2023-01-20T16:43:17.903Z,24.41
2023-01-20T16:45:47.237Z,24.53
2023-01-20T16:48:14.231Z,24.63
2023-01-20T16:50:41.209Z,24.89
2023-01-20T16:53:10.754Z,24.51
2023-01-20T16:55:37.661Z,24.30
2023-01-20T16:58:04.767Z,24.69
2023-01-20T17:00:31.624Z,24.33
2023-01-20T17:02:58.524Z,24.65
2023-01-20T17:05:27.832Z,24.70
2023-01-20T17:07:57.342Z,24.70
2023-01-20T17:10:27.453Z,24.14
2023-01-20T17:12:55.371Z,24.62
2023-01-20T17:15:23.304Z,23.99
2023-01-20T17:17:51.578Z,24.50
2023-01-20T17:20:19.045Z,24.27
2023-01-20T17:22:46.099Z,24.12
2023-01-20T17:25:15.087Z,24.21
2023-01-20T17:27:45.198Z,24.28
2023-01-20T17:30:12.616Z,24.08
2023-01-20T17:32:39.536Z,24.27
2023-01-20T17:35:07.450Z,24.10
2023-01-20T17:37:34.369Z,24.38
2023-01-20T17:40:01.274Z,23.94
2023-01-20T17:42:28.339Z,23.98
2023-01-20T17:45:01.348Z,24.22
2023-01-20T17:47:31.266Z,24.35
2023-01-20T17:49:58.375Z,24.31
2023-01-20T17:52:25.381Z,24.55
2023-01-20T17:54:52.327Z,24.41
2023-01-20T17:57:19.219Z,23.93
2023-01-20T17:59:46.356Z,24.00
2023-01-20T18:02:14.780Z,24.35
2023-01-20T18:04:41.653Z,23.87
2023-01-20T18:07:08.919Z,24.18
2023-01-20T18:09:36.134Z,23.97
2023-01-20T18:12:03.532Z,24.30
2023-01-20T18:14:30.590Z,24.16
2023-01-20T18:16:57.758Z,24.14
2023-01-20T18:19:26.255Z,24.32
2023-01-20T18:21:53.283Z,24.14
2023-01-20T18:24:20.175Z,24.12
2023-01-20T18:26:47.092Z,24.23
2023-01-20T18:29:16.594Z,24.10
2023-01-20T18:31:46.419Z,24.31
2023-01-20T18:34:15.820Z,24.44
2023-01-20T18:36:46.159Z,24.03
2023-01-20T18:39:15.454Z,24.15
2023-01-20T18:41:43.212Z,24.28
2023-01-20T18:44:10.374Z,23.87
2023-01-20T18:46:37.635Z,24.27
2023-01-20T18:49:05.626Z,24.37
2023-01-20T18:51:33.919Z,24.68
2023-01-20T18:54:05.721Z,24.28
2023-01-20T18:56:33.481Z,23.99
2023-01-20T18:59:01.365Z,24.46
2023-01-20T19:01:32.095Z,24.41
2023-01-20T19:04:00.004Z,24.30
2023-01-20T19:06:29.106Z,24.21
2023-01-20T19:08:57.691Z,23.90
2023-01-20T19:11:28.328Z,23.88
2023-01-20T19:13:56.080Z,23.86
2023-01-20T19:16:25.690Z,23.95
2023-01-20T19:18:53.909Z,24.12
2023-01-20T19:21:21.892Z,24.27
2023-01-20T19:23:50.097Z,23.81
2023-01-20T19:26:20.409Z,24.45
2023-01-20T19:28:54.813Z,24.35
2023-01-20T19:31:21.885Z,24.00
2023-01-20T19:33:51.543Z,24.10
2023-01-20T19:36:19.463Z,24.19
2023-01-20T19:38:47.133Z,24.42
2023-01-20T19:41:16.128Z,24.01
2023-01-20T19:43:43.713Z,24.44
2023-01-20T19:46:13.599Z,24.19
2023-01-20T19:48:41.422Z,24.40
2023-01-20T19:51:11.404Z,24.35
2023-01-20T19:53:38.717Z,24.17
2023-01-20T19:56:08.021Z,24.19
2023-01-20T19:58:35.526Z,23.98
2023-01-20T20:01:06.530Z,24.41
2023-01-20T20:03:35.319Z,23.91
2023-01-20T20:06:02.513Z,24.29
2023-01-20T20:08:29.427Z,24.30
2023-01-20T20:10:56.492Z,24.28
2023-01-20T20:13:23.645Z,24.30
2023-01-20T20:15:59.885Z,24.29
2023-01-20T20:18:27.066Z,24.05
2023-01-20T20:20:55.439Z,24.40
2023-01-20T20:23:22.879Z,24.24
2023-01-20T20:25:51.313Z,24.48
2023-01-20T20:28:18.935Z,24.23
2023-01-20T20:30:45.951Z,24.16
2023-01-20T20:33:13.069Z,23.88
2023-01-20T20:35:40.019Z,24.02
2023-01-20T20:38:08.243Z,23.78
2023-01-20T20:40:35.240Z,23.85
2023-01-20T20:43:02.130Z,23.87
2023-01-20T20:45:28.995Z,24.03
2023-01-20T20:47:57.153Z,23.81
2023-01-20T20:50:24.147Z,23.94
2023-01-20T20:52:53.948Z,24.17
2023-01-20T20:55:22.306Z,23.95
2023-01-20T20:57:49.326Z,23.93
2023-01-20T21:00:17.605Z,23.87
2023-01-20T21:02:44.694Z,23.93
2023-01-20T21:05:11.568Z,23.83
2023-01-20T21:07:38.473Z,24.19
2023-01-20T21:10:06.576Z,24.36
2023-01-20T21:12:34.829Z,24.07
2023-01-20T21:15:01.655Z,23.94
2023-01-20T21:17:28.950Z,24.43
2023-01-20T21:19:55.791Z,24.41
2023-01-20T21:22:22.666Z,24.26
2023-01-20T21:24:49.782Z,24.43
2023-01-20T21:27:16.740Z,24.24
2023-01-20T21:29:46.477Z,24.60
2023-01-20T21:32:13.389Z,24.11
2023-01-20T21:34:40.255Z,24.14
2023-01-20T21:37:08.552Z,24.23
2023-01-20T21:39:35.592Z,24.41
2023-01-20T21:42:02.518Z,24.40
2023-01-20T21:44:29.577Z,24.51
2023-01-20T21:46:59.417Z,24.31
2023-01-20T21:49:45.257Z,24.47
2023-01-20T21:52:32.193Z,24.75
2023-01-20T21:54:59.178Z,24.66
2023-01-20T21:57:27.093Z,24.81
2023-01-20T21:59:54.068Z,24.81
2023-01-20T22:02:22.549Z,24.75
2023-01-20T22:04:49.532Z,24.66
2023-01-20T22:07:17.472Z,24.59
2023-01-20T22:09:44.434Z,24.76
2023-01-20T22:12:11.923Z,24.71
2023-01-20T22:14:39.357Z,24.81
2023-01-20T22:17:07.033Z,24.78
2023-01-20T22:19:35.634Z,24.84
2023-01-20T22:22:03.165Z,24.78
2023-01-20T22:24:30.690Z,24.67
2023-01-20T22:26:57.668Z,24.90
2023-01-20T22:29:25.322Z,24.87
2023-01-20T22:31:53.317Z,24.59
2023-01-20T22:34:21.244Z,24.88
2023-01-20T22:36:49.474Z,24.98
2023-01-20T22:39:16.835Z,24.84
2023-01-20T22:41:43.898Z,24.83
2023-01-20T22:44:10.863Z,24.94
2023-01-20T22:46:37.731Z,24.99
2023-01-20T22:49:04.644Z,25.02
2023-01-20T22:51:31.568Z,25.05
2023-01-20T22:54:01.191Z,25.15
2023-01-20T22:56:29.979Z,25.20
2023-01-20T22:58:57.702Z,24.85
2023-01-20T23:01:26.517Z,24.86
2023-01-20T23:03:54.295Z,24.88
2023-01-20T23:06:21.602Z,25.10
2023-01-20T23:08:48.469Z,25.04
2023-01-20T23:11:19.483Z,24.99
2023-01-20T23:13:46.906Z,25.06
2023-01-20T23:16:19.693Z,25.04
2023-01-20T23:18:47.299Z,25.16
2023-01-20T23:21:14.723Z,25.02
2023-01-20T23:23:41.856Z,25.08
2023-01-20T23:26:14.311Z,24.96
2023-01-20T23:28:43.080Z,25.18
2023-01-20T23:31:12.128Z,25.12
2023-01-20T23:33:41.306Z,25.01
2023-01-20T23:36:12.763Z,25.00
2023-01-20T23:38:39.740Z,25.08
2023-01-20T23:41:06.664Z,25.08
2023-01-20T23:43:33.857Z,25.10
2023-01-20T23:46:04.697Z,25.10
2023-01-20T23:48:32.553Z,25.16
2023-01-20T23:51:02.638Z,25.05
2023-01-20T23:53:32.336Z,25.21
2023-01-20T23:56:00.126Z,25.15
2023-01-20T23:58:27.012Z,25.15
